Latest Weather Observations for Coolangatta

IDQ60901

Issued at 10:11 pm EST Thursday 30 June 2016 (issued every 10 minutes, with the page automatically refreshed every 10 minutes)

About weather observations | Map of Brisbane area stations | Latest observations for Brisbane area | Other Formats
Station Details ID: 040717 Name: COOLANGATTA Lat: -28.17 Lon: 153.51 Height: 4.0 m
Data from the previous 72 hours. | See also: Recent months at Coolangatta
Date/Time
EST
Temp
°C
App
Temp
°C
Dew
Point
°C
Rel
Hum
%
Delta-T
°C
Wind Press
QNH
hPa
Press
MSL
hPa
Rain since
9am
mm
Dir  Spd
km/h
Gust
km/h
Spd
kts
Gust
kts
30/10:06pm 13.9 14.3 12.6 92 0.7 W 2 6 1 3 1019.9 1019.9 0.0
30/10:00pm 13.8 13.5 12.7 93 0.6 W 6 7 3 4 1019.8 1019.8 0.0
30/09:30pm 13.4 12.7 12.1 92 0.7 W 7 9 4 5 1020.0 1020.0 0.0
30/09:00pm 13.8 13.4 12.5 92 0.7 WSW 6 7 3 4 1020.1 1020.1 0.0
30/08:30pm 13.8 13.2 12.4 91 0.8 W 7 9 4 5 1020.6 1020.6 0.0
30/08:00pm 14.0 14.0 12.4 90 0.9 WNW 4 6 2 3 1020.7 1020.7 0.0
30/07:30pm 14.3 13.4 12.7 90 0.9 WSW 9 11 5 6 1020.8 1020.8 0.0
30/07:00pm 14.8 13.7 13.0 89 1.0 WSW 11 15 6 8 1020.6 1020.6 0.0
30/06:30pm 15.3 14.7 12.4 83 1.6 W 7 11 4 6 1020.4 1020.4 0.0
30/06:00pm 17.4 16.5 12.5 73 2.7 N 9 17 5 9 1020.2 1020.2 0.0
30/05:30pm 18.1 15.7 12.5 70 3.1 N 17 22 9 12 1019.7 1019.7 0.0
30/05:00pm 18.2 15.5 12.9 71 3.0 N 19 24 10 13 1019.7 1019.7 0.0
30/04:30pm 18.5 17.0 13.1 71 3.0 NNE 13 19 7 10 1019.8 1019.8 0.0
30/04:00pm 18.8 16.9 13.0 69 3.3 NE 15 17 8 9 1020.0 1020.0 0.0
30/03:30pm 18.9 17.2 12.6 67 3.5 NE 13 20 7 11 1020.0 1020.0 0.0
30/03:00pm 19.0 16.9 12.5 66 3.6 NE 15 20 8 11 1020.1 1020.1 0.0
30/02:30pm 19.4 17.3 12.4 64 3.9 NE 15 19 8 10 1020.4 1020.4 0.0
30/02:00pm 19.4 17.2 12.2 63 4.0 NE 15 19 8 10 1020.5 1020.5 0.0
30/01:30pm 19.5 17.5 11.5 60 4.4 NE 13 17 7 9 1020.9 1020.9 0.0
30/01:00pm 19.5 17.4 11.0 58 4.6 NE 13 17 7 9 1021.4 1021.4 0.0
30/12:30pm 19.7 17.5 10.9 57 4.8 NNE 13 17 7 9 1021.9 1021.9 0.0
30/12:00pm 20.0 17.9 11.2 57 4.8 NNE 13 15 7 8 1022.3 1022.3 0.0
30/11:30am 20.8 19.8 10.9 53 5.4 NNE 7 15 4 8 1022.8 1022.8 0.0
30/11:00am 19.7 18.5 10.4 55 5.0 SSW 7 13 4 7 1023.3 1023.3 0.0
30/10:30am 19.2 17.2 10.2 56 4.8 SSE 11 13 6 7 1023.6 1023.6 0.0
30/10:00am 18.9 17.7 10.2 57 4.6 SSE 7 11 4 6 1023.9 1023.9 0.0
30/09:30am 18.1 17.3 11.2 64 3.7 S 6 9 3 5 1023.9 1023.9 0.0
30/09:00am 16.0 15.9 10.7 71 2.8 S 2 7 1 4 1023.9 1023.9 0.0
30/08:30am 13.4 12.6 9.5 77 2.0 SW 4 7 2 4 1023.8 1023.8 0.0
30/08:00am 12.0 12.1 10.1 88 1.0 CALM 0 0 0 0 1023.7 1023.7 0.0
30/07:30am 10.2 8.9 9.1 93 0.5 S 6 7 3 4 1023.5 1023.5 0.0
30/07:00am 8.5 6.8 7.6 94 0.4 S 6 6 3 3 1023.2 1023.2 0.0
30/06:30am 8.5 6.6 7.6 94 0.4 S 7 9 4 5 1023.1 1023.1 0.0
30/06:00am 8.0 6.9 6.9 93 0.5 SSW 2 9 1 5 1023.0 1023.0 0.0
30/05:30am 8.5 7.9 7.6 94 0.4 CALM 0 0 0 0 1022.8 1022.8 0.0
30/05:00am 8.5 6.8 7.7 95 0.4 SW 6 7 3 4 1022.8 1022.8 0.0
30/04:30am 8.3 6.4 7.7 96 0.3 SW 7 7 4 4 1022.8 1022.8 0.0
30/04:00am 7.8 6.0 7.1 95 0.3 S 6 7 3 4 1022.9 1022.9 0.0
30/03:30am 8.6 7.0 8.0 96 0.3 SSW 6 7 3 4 1023.1 1023.1 0.0
30/03:00am 9.0 7.3 8.2 95 0.4 SSW 7 7 4 4 1023.2 1023.2 0.0
30/02:30am 8.6 7.3 7.5 93 0.5 SSE 4 6 2 3 1023.5 1023.5 0.0
30/02:00am 9.8 8.4 9.0 95 0.4 SSW 6 9 3 5 1024.0 1024.0 0.0
30/01:30am 8.7 6.4 7.6 93 0.5 SW 9 11 5 6 1024.1 1024.1 0.0
30/01:00am 9.2 8.7 8.0 92 0.6 CALM 0 0 0 0 1024.3 1024.3 0.0
30/12:30am 9.4 7.6 7.8 90 0.8 SSW 7 9 4 5 1024.4 1024.4 0.0
30/12:00am 10.0 8.3 8.4 90 0.8 SW 7 9 4 5 1024.5 1024.5 0.0
 
Date/Time
EST
Temp
°C
App
Temp
°C
Dew
Point
°C
Rel
Hum
%
Delta-T
°C
Wind Press
QNH
hPa
Press
MSL
hPa
Rain since
9am
mm
Dir  Spd
km/h
Gust
km/h
Spd
kts
Gust
kts
29/11:30pm 10.0 9.4 8.9 93 0.5 SSW 2 11 1 6 1024.8 1024.8 0.0
29/11:00pm 9.9 7.9 8.8 93 0.5 S 9 11 5 6 1025.1 1025.1 0.0
29/10:30pm 9.9 7.9 8.7 92 0.6 SW 9 11 5 6 1025.4 1025.4 0.0
29/10:00pm 10.6 8.8 9.4 92 0.6 SW 9 11 5 6 1025.4 1025.4 0.0
29/09:30pm 10.3 9.0 9.2 93 0.5 SW 6 9 3 5 1025.4 1025.4 0.0
29/09:00pm 10.4 10.1 8.5 88 0.9 CALM 0 0 0 0 1025.5 1025.5 0.0
29/08:30pm 11.7 11.7 9.9 89 0.9 CALM 0 0 0 0 1025.5 1025.5 0.0
29/08:00pm 11.9 10.6 10.0 88 1.0 SW 7 11 4 6 1025.8 1025.8 0.0
29/07:30pm 12.8 10.7 9.6 81 1.6 SW 11 11 6 6 1025.8 1025.8 0.0
29/07:00pm 13.3 11.4 9.2 76 2.1 WSW 9 11 5 6 1025.7 1025.7 0.0
29/06:30pm 14.6 12.1 9.6 72 2.6 S 13 17 7 9 1025.4 1025.4 0.0
29/06:00pm 14.2 12.0 9.4 73 2.4 S 11 13 6 7 1025.2 1025.2 0.0
29/05:30pm 15.0 13.1 9.1 68 3.0 S 9 13 5 7 1024.8 1024.8 0.0
29/05:00pm 16.2 14.3 9.2 63 3.6 S 9 13 5 7 1024.7 1024.7 0.0
29/04:30pm 17.5 15.2 8.9 57 4.5 S 11 17 6 9 1024.5 1024.5 0.0
29/04:00pm 18.4 15.4 9.2 55 4.8 S 15 20 8 11 1024.2 1024.2 0.0
29/03:30pm 18.9 15.6 9.4 54 5.0 SSE 17 24 9 13 1024.0 1024.0 0.0
29/03:00pm 19.2 16.2 9.1 52 5.3 S 15 20 8 11 1023.7 1023.7 0.0
29/02:30pm 19.8 16.8 9.1 50 5.6 SSW 15 20 8 11 1023.5 1023.5 0.0
29/02:00pm 20.2 17.6 9.5 50 5.7 SSW 13 19 7 10 1023.4 1023.4 0.0
29/01:30pm 19.6 16.1 8.6 49 5.7 SSW 17 28 9 15 1023.5 1023.5 0.0
29/01:00pm 20.0 16.3 9.6 51 5.5 S 19 30 10 16 1023.7 1023.7 0.0
29/12:30pm 19.6 15.6 8.9 50 5.6 SSW 20 28 11 15 1024.2 1024.2 0.0
29/12:00pm 19.4 15.6 9.0 51 5.4 SSW 19 28 10 15 1024.7 1024.7 0.0
29/11:30am 18.9 14.9 8.3 50 5.5 S 19 30 10 16 1025.1 1025.1 0.0
29/11:27am 19.0 15.1 8.6 51 5.4 SSW 19 30 10 16 1025.2 1025.2 0.0
29/11:08am 18.7 14.2 8.4 51 5.3 S 22 33 12 18 1025.2 1025.2 0.0
29/11:00am 18.3 13.3 8.0 51 5.2 S 24 33 13 18 1025.3 1025.3 0.0
29/10:30am 18.4 14.8 8.4 52 5.2 SSW 17 26 9 14 1025.8 1025.8 0.0
29/10:00am 17.4 12.6 7.5 52 5.0 SSW 22 35 12 19 1025.8 1025.8 0.0
29/09:30am 16.9 12.0 7.0 52 4.9 SSW 22 37 12 20 1025.9 1025.9 0.0
29/09:00am 16.4 11.8 6.5 52 4.8 SSW 20 32 11 17 1025.8 1025.8 0.0
29/08:30am 15.8 11.2 6.3 53 4.6 SSW 20 30 11 16 1025.7 1025.7 0.0
29/08:00am 15.1 10.5 5.6 53 4.5 SSW 19 26 10 14 1025.4 1025.4 0.0
29/07:30am 14.4 9.7 5.2 54 4.3 SSW 19 28 10 15 1025.2 1025.2 0.0
29/07:00am 13.7 8.9 4.8 55 4.1 SSW 19 24 10 13 1025.1 1025.1 0.0
29/06:30am 13.7 8.7 4.8 55 4.1 SSW 20 32 11 17 1024.9 1024.9 0.0
29/06:00am 13.9 9.0 5.0 55 4.1 SSW 20 28 11 15 1024.6 1024.6 0.0
29/05:30am 13.9 9.0 5.3 56 4.0 SSW 20 30 11 16 1024.3 1024.3 0.0
29/05:00am 14.1 8.9 5.5 56 4.0 SSW 22 32 12 17 1023.9 1023.9 0.0
29/04:30am 14.3 9.1 5.7 56 4.1 SSW 22 30 12 16 1023.7 1023.7 0.0
29/04:00am 13.9 9.8 6.0 59 3.7 SSW 17 22 9 12 1023.7 1023.7 0.0
29/03:30am 10.4 7.6 6.9 79 1.7 SW 11 13 6 7 1023.6 1023.6 0.0
29/03:00am 11.7 8.7 6.0 68 2.7 WSW 11 13 6 7 1023.6 1023.6 0.0
29/02:30am 13.5 10.1 5.7 59 3.7 SSW 13 19 7 10 1023.5 1023.5 0.0
29/02:00am 13.9 9.8 6.0 59 3.7 SSW 17 22 9 12 1023.6 1023.6 0.0
29/01:30am 14.2 10.1 6.1 58 3.9 SSW 17 24 9 13 1023.6 1023.6 0.0
29/01:00am 13.4 9.7 6.3 62 3.4 SSW 15 19 8 10 1023.7 1023.7 0.0
29/12:30am 13.1 10.0 7.3 68 2.8 SW 13 20 7 11 1023.6 1023.6 0.0
29/12:29am 13.1 10.0 7.3 68 2.8 SW 13 20 7 11 1023.6 1023.6 0.0
29/12:00am 8.0 5.7 5.8 86 1.0 SW 7 9 4 5 1023.9 1023.9 0.0
 
Date/Time
EST
Temp
°C
App
Temp
°C
Dew
Point
°C
Rel
Hum
%
Delta-T
°C
Wind Press
QNH
hPa
Press
MSL
hPa
Rain since
9am
mm
Dir  Spd
km/h
Gust
km/h
Spd
kts
Gust
kts
28/11:30pm 9.9 8.4 7.0 82 1.4 SSE 4 9 2 5 1024.0 1024.0 0.0
28/11:00pm 10.2 7.9 7.4 83 1.3 SSW 9 11 5 6 1023.7 1023.7 0.0
28/10:30pm 9.1 7.3 7.9 92 0.6 SSW 7 9 4 5 1023.7 1023.7 0.0
28/10:00pm 8.8 6.9 7.4 91 0.7 SW 7 9 4 5 1023.7 1023.7 0.0
28/09:30pm 9.4 8.4 7.3 87 1.0 SSW 2 6 1 3 1023.6 1023.6 0.0
28/09:00pm 10.0 6.9 7.4 84 1.2 WSW 13 17 7 9 1023.3 1023.3 0.0
28/08:30pm 9.9 6.9 7.7 86 1.1 WSW 13 15 7 8 1023.3 1023.3 0.0
28/08:00pm 10.4 8.7 7.6 83 1.3 SW 6 7 3 4 1023.2 1023.2 0.0
28/07:30pm 10.7 7.7 7.8 82 1.4 WSW 13 15 7 8 1023.0 1023.0 0.0
28/07:00pm 10.8 9.0 8.0 83 1.4 WSW 7 9 4 5 1022.6 1022.6 0.0
28/06:30pm 11.0 9.2 7.3 78 1.8 WSW 6 7 3 4 1022.1 1022.1 0.0
28/06:00pm 11.4 10.3 6.7 73 2.2 W 2 7 1 4 1021.4 1021.4 0.0
28/05:30pm 13.8 13.2 7.3 65 3.2 CALM 0 0 0 0 1020.9 1020.9 0.0
28/05:00pm 16.2 13.9 5.8 50 5.0 SSW 7 9 4 5 1020.6 1020.6 0.0
28/04:30pm 17.5 14.5 5.8 46 5.7 SSW 11 15 6 8 1020.1 1020.1 0.0
28/04:00pm 18.4 14.9 5.6 43 6.2 SSW 13 20 7 11 1019.7 1019.7 0.0
28/03:30pm 18.9 15.5 5.7 42 6.5 SSW 13 20 7 11 1019.6 1019.6 0.0
28/03:00pm 19.1 15.6 5.6 41 6.6 SSW 13 20 7 11 1019.3 1019.3 0.0
28/02:30pm 19.2 15.8 6.0 42 6.5 SSW 13 20 7 11 1018.9 1018.9 0.0
28/02:00pm 19.3 15.5 5.7 41 6.7 SW 15 30 8 16 1018.7 1018.7 0.0
28/01:30pm 19.0 14.8 5.5 41 6.6 S 17 26 9 14 1018.4 1018.4 0.0
28/01:00pm 18.3 13.4 5.2 42 6.3 SSW 20 32 11 17 1018.5 1018.5 0.0
28/12:30pm 18.3 13.5 4.5 40 6.6 SSW 19 30 10 16 1018.7 1018.7 0.0
28/12:00pm 18.0 13.4 5.6 44 6.0 SSW 19 35 10 19 1018.9 1018.9 0.0
28/11:30am 17.5 12.7 4.8 43 6.1 SW 19 28 10 15 1019.1 1019.1 0.0
28/11:00am 17.4 12.1 5.0 44 5.9 SW 22 33 12 18 1019.3 1019.3 0.0
28/10:30am 16.6 12.2 4.6 45 5.7 SW 17 26 9 14 1019.5 1019.5 0.0
28/10:00am 15.1 12.1 3.9 47 5.1 W 9 15 5 8 1019.6 1019.6 0.0
28/09:30am 13.9 10.9 3.9 51 4.5 NNW 9 11 5 6 1019.7 1019.7 0.0
28/09:00am 13.2 11.5 3.8 53 4.2 NW 2 6 1 3 1019.5 1019.5 0.0
28/08:30am 10.7 8.2 4.6 66 2.7 WNW 7 9 4 5 1019.4 1019.4 0.0
28/08:00am 7.9 5.1 5.2 83 1.2 W 9 11 5 6 1019.3 1019.3 0.0
28/07:30am 6.1 3.8 4.9 92 0.5 SW 6 7 3 4 1019.3 1019.3 0.0
28/07:00am 4.2 2.4 3.2 93 0.4 W 2 7 1 4 1019.1 1019.1 0.0
28/06:30am 5.0 3.0 4.3 95 0.3 SW 4 7 2 4 1018.7 1018.7 0.0
28/06:00am 4.3 1.2 3.6 95 0.3 W 9 11 5 6 1018.5 1018.5 0.0
28/05:30am 3.6 1.2 2.4 92 0.5 WSW 4 7 2 4 1018.3 1018.3 0.0
28/05:00am 4.2 1.4 3.0 92 0.5 W 7 11 4 6 1017.9 1017.9 0.0
28/04:30am 5.2 2.8 4.3 94 0.4 WSW 6 11 3 6 1017.5 1017.5 0.0
28/04:00am 5.1 2.5 4.4 95 0.3 W 7 11 4 6 1017.4 1017.4 0.0
28/03:30am 4.8 3.1 3.8 93 0.4 WSW 2 9 1 5 1017.3 1017.3 0.0
28/03:00am 4.8 2.3 3.6 92 0.5 W 6 7 3 4 1017.2 1017.2 0.0
28/02:30am 4.7 2.4 3.0 89 0.7 WSW 4 7 2 4 1017.2 1017.2 0.0
28/02:00am 6.0 4.7 4.3 89 0.7 CALM 0 4 0 2 1017.0 1017.0 0.0
28/01:30am 6.1 4.1 4.6 90 0.6 WSW 4 7 2 4 1016.9 1016.9 0.0
28/01:00am 6.0 3.4 4.3 89 0.7 WSW 7 9 4 5 1016.8 1016.8 0.0
28/12:30am 5.6 3.7 3.1 84 1.0 W 2 6 1 3 1016.9 1016.9 0.0
28/12:00am 6.6 3.8 2.9 77 1.5 W 7 11 4 6 1017.0 1017.0 0.0
 
Date/Time
EST
Temp
°C
App
Temp
°C
Dew
Point
°C
Rel
Hum
%
Delta-T
°C
Wind Press
QNH
hPa
Press
MSL
hPa
Rain since
9am
mm
Dir  Spd
km/h
Gust
km/h
Spd
kts
Gust
kts
27/11:30pm 8.0 5.2 3.1 71 2.1 WNW 7 11 4 6 1016.9 1016.9 0.0
27/11:00pm 6.9 3.8 3.7 80 1.4 WNW 9 13 5 7 1017.2 1017.2 0.0
27/10:30pm 8.5 6.0 3.9 73 2.0 WNW 6 9 3 5 1017.3 1017.3 0.0

Latest Capital City Observations: Canberra | Sydney | Melbourne | Brisbane | Adelaide | Perth | Hobart | Darwin

Other Formats:

Comma delimited format used in spreadsheet applications
http://www.bom.gov.au/fwo/IDQ60901/IDQ60901.94592.axf

JavaScript Object Notation format (JSON) in row-major order
http://www.bom.gov.au/fwo/IDQ60901/IDQ60901.94592.json